Time;durP1;ratioP1;P1;durP2;ratioP2;P2;SDS_P1;SDS_P2;PMS_P1;PMS_P2;Temp;Humidity;BMP_temperature;BMP_pressure;BME280_temperature;BME280_humidity;BME280_pressure;Samples;Min_cycle;Max_cycle;Signal;HPM_P1;HPM_P2
2021/05/22 00:01:31;;;;;;;1.33;1.10;;;;;;;6.04;94.67;95010.94;5100181;28;20069;-74
2021/05/22 00:03:57;;;;;;;1.55;0.90;;;;;;;6.06;94.45;95019.31;5103280;28;20090;-74
2021/05/22 00:06:22;;;;;;;1.65;1.10;;;;;;;6.00;94.33;95027.38;5090814;28;20413;-75
2021/05/22 00:08:48;;;;;;;2.17;1.10;;;;;;;5.99;94.55;95013.53;5103322;28;20091;-74
2021/05/22 00:11:14;;;;;;;1.65;0.77;;;;;;;5.98;94.36;95001.50;5108344;28;20075;-74
2021/05/22 00:13:40;;;;;;;0.68;0.68;;;;;;;5.88;94.92;95006.63;5109805;28;20050;-74
2021/05/22 00:16:05;;;;;;;1.02;0.68;;;;;;;5.94;94.84;95008.22;5106422;28;20050;-74
2021/05/22 00:18:31;;;;;;;0.90;0.90;;;;;;;5.97;94.94;95014.78;5103191;28;20036;-74
2021/05/22 00:20:57;;;;;;;1.33;1.08;;;;;;;5.99;94.92;95029.19;5106888;28;20043;-74
2021/05/22 00:23:23;;;;;;;0.95;0.85;;;;;;;5.96;94.75;95029.69;5103039;28;20339;-74
2021/05/22 00:25:49;;;;;;;0.82;0.80;;;;;;;5.91;94.76;95032.25;5095281;28;20134;-76
2021/05/22 00:28:14;;;;;;;1.80;0.90;;;;;;;5.90;95.02;95035.88;5096088;28;20050;-73
2021/05/22 00:30:40;;;;;;;1.17;0.95;;;;;;;5.90;95.49;95046.34;5105346;28;20058;-74
2021/05/22 00:33:06;;;;;;;2.30;1.00;;;;;;;5.90;94.70;95033.28;5110877;28;20443;-74
2021/05/22 00:35:31;;;;;;;1.80;1.00;;;;;;;5.89;94.87;95029.13;5102054;28;20040;-74
2021/05/22 00:37:57;;;;;;;0.80;0.80;;;;;;;5.94;94.75;95034.34;5105807;28;20097;-74
2021/05/22 00:40:23;;;;;;;1.88;0.90;;;;;;;5.88;94.49;95027.53;5105245;28;20052;-74
2021/05/22 00:42:48;;;;;;;5.38;1.00;;;;;;;5.90;94.86;95030.66;5103653;28;20039;-74
2021/05/22 00:45:19;;;;;;;2.38;0.88;;;;;;;5.88;94.50;95019.69;5107869;28;20288;-74
2021/05/22 00:47:50;;;;;;;1.42;0.90;;;;;;;5.80;95.00;95014.94;5095886;28;20039;-74
2021/05/22 00:50:40;;;;;;;1.55;0.93;;;;;;;5.86;94.50;95009.50;5105561;28;20115;-75
2021/05/22 00:53:07;;;;;;;1.00;0.90;;;;;;;5.84;94.71;95008.16;5102548;28;20088;-73
2021/05/22 00:55:34;;;;;;;1.00;0.90;;;;;;;5.80;95.18;95004.50;5094806;28;20059;-75
2021/05/22 00:58:01;;;;;;;0.90;0.90;;;;;;;5.83;94.29;95015.22;5100479;28;20069;-75
2021/05/22 01:00:38;;;;;;;3.13;0.90;;;;;;;5.84;95.04;95016.78;5106031;28;20040;-74
2021/05/22 01:03:07;;;;;;;1.13;0.85;;;;;;;5.77;95.01;95016.22;5097151;28;20047;-76
2021/05/22 01:05:32;;;;;;;2.17;1.08;;;;;;;5.76;94.80;95024.31;5108592;28;20097;-75
2021/05/22 01:07:58;;;;;;;0.88;0.88;;;;;;;5.83;94.86;95011.81;5104622;28;20040;-75
2021/05/22 01:10:24;;;;;;;3.15;0.98;;;;;;;5.78;95.27;95012.56;5107704;28;20032;-75
2021/05/22 01:12:54;;;;;;;0.70;0.70;;;;;;;5.77;95.09;95021.44;5110282;28;20040;-75
2021/05/22 01:15:24;;;;;;;2.60;0.98;;;;;;;5.72;95.19;95024.81;5106242;28;20043;-74
2021/05/22 01:17:51;;;;;;;3.08;1.20;;;;;;;5.77;95.21;95037.09;5100657;28;20092;-76
2021/05/22 01:20:46;;;;;;;3.38;1.00;;;;;;;5.77;95.08;95012.81;5114275;28;20118;-75
2021/05/22 01:23:23;;;;;;;1.30;1.20;;;;;;;5.70;94.71;95000.78;5102325;28;20487;-74
2021/05/22 01:25:50;;;;;;;0.85;0.85;;;;;;;5.66;95.14;94999.69;5102804;28;20059;-75
2021/05/22 01:28:16;;;;;;;1.02;1.02;;;;;;;5.61;95.13;95001.50;5097871;28;20107;-74
2021/05/22 01:30:44;;;;;;;0.75;0.70;;;;;;;5.53;94.17;95011.34;5107801;28;20107;-74
2021/05/22 01:33:10;;;;;;;0.90;0.68;;;;;;;5.52;93.65;95014.22;5112266;28;20040;-75
2021/05/22 01:35:38;;;;;;;0.57;0.57;;;;;;;5.51;94.82;95004.81;5099130;28;20085;-75
2021/05/22 01:38:04;;;;;;;1.90;0.75;;;;;;;5.42;94.27;95003.69;5098612;28;20034;-74
2021/05/22 01:40:30;;;;;;;5.75;1.13;;;;;;;5.40;94.63;94990.09;5108654;28;20401;-75
2021/05/22 01:42:56;;;;;;;3.10;1.00;;;;;;;5.37;94.19;94991.38;5098874;28;20046;-75
2021/05/22 01:45:27;;;;;;;1.50;0.55;;;;;;;5.28;93.73;95001.47;5106702;28;20401;-75
2021/05/22 01:47:55;;;;;;;1.20;0.60;;;;;;;5.24;94.17;95002.22;5097823;28;20074;-75
2021/05/22 01:50:22;;;;;;;1.30;0.60;;;;;;;5.19;94.28;95000.38;5102801;28;20043;-76
2021/05/22 01:52:53;;;;;;;0.65;0.65;;;;;;;5.26;94.31;95010.59;5099060;28;20043;-74
2021/05/22 01:55:20;;;;;;;1.17;0.57;;;;;;;5.27;94.25;94992.09;5092884;28;20405;-75
2021/05/22 01:57:46;;;;;;;0.75;0.73;;;;;;;5.27;94.19;94981.66;5101038;28;20148;-75
2021/05/22 02:00:16;;;;;;;0.47;0.45;;;;;;;5.21;93.85;94977.41;5110972;28;20102;-75
2021/05/22 02:02:58;;;;;;;2.58;0.82;;;;;;;5.24;94.46;94976.13;5112794;28;20043;-75
2021/05/22 02:05:26;;;;;;;0.43;0.43;;;;;;;5.24;94.64;94965.72;5108228;28;20388;-75
2021/05/22 02:07:56;;;;;;;2.00;0.70;;;;;;;5.22;94.91;94965.97;5109925;28;20036;-73
2021/05/22 02:10:23;;;;;;;2.85;0.73;;;;;;;5.23;94.47;94964.94;5111233;28;20059;-75
2021/05/22 02:12:49;;;;;;;1.58;0.70;;;;;;;5.26;94.31;94967.03;5098002;28;20047;-75
2021/05/22 02:15:16;;;;;;;1.20;0.65;;;;;;;5.22;94.27;94958.13;5094746;28;20413;-76
2021/05/22 02:17:46;;;;;;;0.90;0.40;;;;;;;5.27;93.79;94960.78;5104852;28;20036;-75
2021/05/22 02:20:14;;;;;;;0.47;0.47;;;;;;;5.26;93.92;94961.81;5112637;28;20043;-76
2021/05/22 02:22:43;;;;;;;2.55;0.60;;;;;;;5.26;92.85;94959.22;5095955;28;20085;-74
2021/05/22 02:25:12;;;;;;;0.40;0.38;;;;;;;5.25;93.25;94962.84;5112580;28;20507;-75
2021/05/22 02:27:37;;;;;;;0.70;0.70;;;;;;;5.27;93.65;94960.78;5099800;28;20081;-75
2021/05/22 02:30:12;;;;;;;1.80;0.90;;;;;;;5.24;93.72;94961.25;5097598;28;20501;-74
2021/05/22 02:32:47;;;;;;;0.40;0.40;;;;;;;5.25;93.52;94962.84;5100886;28;20039;-74
2021/05/22 02:35:14;;;;;;;;;;;;;;;5.27;93.55;94970.41;5103551;28;20036;-74
2021/05/22 02:37:40;;;;;;;0.60;0.60;;;;;;;5.26;93.95;94955.78;5104786;28;19977;-75
2021/05/22 02:40:11;;;;;;;1.15;0.35;;;;;;;5.27;93.84;94960.78;5093558;28;20048;-74
2021/05/22 02:42:38;;;;;;;0.50;0.50;;;;;;;5.25;94.68;94965.47;5100033;28;20373;-74
2021/05/22 02:45:07;;;;;;;2.03;0.50;;;;;;;5.24;94.48;94935.19;5106029;28;20117;-74
2021/05/22 02:47:34;;;;;;;2.08;0.50;;;;;;;5.26;94.12;94933.13;5106617;28;20523;-74
2021/05/22 02:50:06;;;;;;;0.40;0.40;;;;;;;5.32;94.01;94941.78;5111253;28;20032;-75
2021/05/22 02:52:33;;;;;;;0.77;0.60;;;;;;;5.27;93.93;94958.19;5104097;28;20111;-75
2021/05/22 02:55:01;;;;;;;0.60;0.60;;;;;;;5.32;94.18;94968.63;5105793;28;20032;-74
2021/05/22 02:57:27;;;;;;;0.50;0.50;;;;;;;5.27;94.50;94978.25;5103605;28;20036;-74
2021/05/22 02:59:55;;;;;;;0.60;0.60;;;;;;;5.30;94.50;94970.72;5112345;28;20044;-74
2021/05/22 03:02:21;;;;;;;1.13;0.60;;;;;;;5.28;94.67;94978.00;5106234;28;20459;-75
2021/05/22 03:04:48;;;;;;;0.50;0.50;;;;;;;5.32;93.91;94973.88;5095773;28;20089;-76
2021/05/22 03:07:14;;;;;;;0.45;0.45;;;;;;;5.37;94.21;94984.34;5106643;28;20052;-75
2021/05/22 03:09:39;;;;;;;0.65;0.60;;;;;;;5.27;94.53;94986.88;5098377;28;20558;-75
2021/05/22 03:12:06;;;;;;;0.52;0.52;;;;;;;5.27;94.74;94986.88;5102162;28;20071;-75
2021/05/22 03:14:31;;;;;;;0.98;0.63;;;;;;;5.25;95.13;95003.81;5100277;28;20036;-75
2021/05/22 03:16:57;;;;;;;0.70;0.70;;;;;;;5.28;95.14;94998.88;5104499;28;20039;-75
2021/05/22 03:19:23;;;;;;;1.55;0.50;;;;;;;5.24;95.92;94989.97;5109614;28;20064;-75
2021/05/22 03:21:48;;;;;;;2.17;0.90;;;;;;;5.25;95.10;94972.50;5102974;28;20036;-75
2021/05/22 03:24:14;;;;;;;0.82;0.55;;;;;;;5.36;94.07;94967.13;5097010;28;20120;-75
2021/05/22 03:26:39;;;;;;;0.63;0.40;;;;;;;5.41;94.26;94962.97;5104062;28;20043;-74
2021/05/22 03:29:05;;;;;;;0.80;0.68;;;;;;;5.42;93.89;94967.16;5112438;28;20157;-75
2021/05/22 03:31:31;;;;;;;0.68;0.60;;;;;;;5.46;93.80;94973.44;5111003;28;20420;-74
2021/05/22 03:33:56;;;;;;;0.70;0.57;;;;;;;5.60;91.69;94974.59;5100403;28;20251;-74
2021/05/22 03:36:22;;;;;;;0.80;0.63;;;;;;;5.54;92.98;94983.41;5104376;28;20032;-74
2021/05/22 03:38:48;;;;;;;0.65;0.40;;;;;;;5.53;93.26;94979.22;5103331;28;20047;-74
2021/05/22 03:41:14;;;;;;;0.65;0.65;;;;;;;5.63;92.46;94971.50;5109444;28;20036;-74
2021/05/22 03:43:39;;;;;;;1.75;0.57;;;;;;;5.59;92.72;94969.63;5110872;28;20408;-75
2021/05/22 03:46:05;;;;;;;1.42;0.50;;;;;;;5.69;91.56;94967.09;5096964;28;20054;-74
2021/05/22 03:48:30;;;;;;;2.50;0.50;;;;;;;5.65;91.80;94966.78;5106086;28;20119;-73
2021/05/22 03:50:56;;;;;;;1.15;0.55;;;;;;;5.70;92.34;94961.63;5105364;28;20039;-74
2021/05/22 03:53:22;;;;;;;0.85;0.85;;;;;;;5.68;91.57;94950.63;5108644;28;20347;-74
2021/05/22 03:55:48;;;;;;;0.50;0.50;;;;;;;5.76;90.98;94956.41;5099952;28;20497;-74
2021/05/22 03:58:14;;;;;;;0.50;0.50;;;;;;;5.76;91.70;94961.63;5107884;28;20507;-74
2021/05/22 04:00:40;;;;;;;0.60;0.60;;;;;;;5.78;91.32;94975.25;5109307;28;20214;-75
2021/05/22 04:03:06;;;;;;;2.95;0.60;;;;;;;5.85;91.40;94954.91;5110897;28;20053;-75
2021/05/22 04:05:33;;;;;;;0.70;0.70;;;;;;;5.79;91.25;94971.56;5093926;28;20042;-75
2021/05/22 04:08:00;;;;;;;0.57;0.57;;;;;;;5.82;90.92;94971.88;5107384;28;20043;-74
2021/05/22 04:10:26;;;;;;;0.60;0.60;;;;;;;5.84;91.08;94979.44;5091396;28;20055;-74
2021/05/22 04:12:51;;;;;;;0.73;0.60;;;;;;;5.80;91.35;94988.81;5098515;28;20040;-74
2021/05/22 04:15:17;;;;;;;2.47;0.63;;;;;;;5.87;90.18;94984.94;5102263;28;20580;-74
2021/05/22 04:17:43;;;;;;;1.40;0.70;;;;;;;5.88;90.93;94993.56;5099734;28;20136;-74
2021/05/22 04:20:09;;;;;;;0.50;0.50;;;;;;;5.92;90.90;94992.03;5110235;28;20040;-74
2021/05/22 04:22:34;;;;;;;0.95;0.82;;;;;;;5.87;91.26;95000.59;5110939;28;20047;-74
2021/05/22 04:25:00;;;;;;;0.65;0.57;;;;;;;5.89;91.08;94998.56;5110582;28;20047;-75
2021/05/22 04:27:26;;;;;;;2.05;0.73;;;;;;;5.87;92.53;94999.84;5098673;28;20036;-74
2021/05/22 04:29:51;;;;;;;0.73;0.65;;;;;;;5.90;91.27;95001.94;5097880;28;20413;-74
2021/05/22 04:32:17;;;;;;;1.42;0.80;;;;;;;5.95;90.62;94998.56;5099525;28;20098;-74
2021/05/22 04:34:42;;;;;;;0.70;0.70;;;;;;;5.92;90.80;95002.50;5096230;28;20470;-75
2021/05/22 04:37:08;;;;;;;0.50;0.50;;;;;;;5.99;90.19;95018.75;5095700;28;20124;-74
2021/05/22 04:39:33;;;;;;;0.70;0.60;;;;;;;6.03;90.05;95025.06;5105753;28;20511;-74
2021/05/22 04:41:59;;;;;;;1.00;0.70;;;;;;;6.14;89.31;95014.66;5103259;28;20055;-74
2021/05/22 04:44:25;;;;;;;1.02;0.70;;;;;;;6.16;88.93;95009.94;5102181;28;20040;-73
2021/05/22 04:46:50;;;;;;;1.58;0.57;;;;;;;6.14;89.77;95004.22;5099819;28;20047;-74
2021/05/22 04:49:16;;;;;;;0.82;0.80;;;;;;;6.17;90.04;95014.16;5106024;28;20513;-72
2021/05/22 04:51:44;;;;;;;1.38;0.82;;;;;;;6.18;90.10;95020.97;5109560;28;20036;-71
2021/05/22 04:54:10;;;;;;;3.08;0.80;;;;;;;6.23;89.75;95036.66;5108848;28;20044;-69
2021/05/22 04:56:36;;;;;;;0.80;0.73;;;;;;;6.22;89.81;95046.31;5104967;28;20093;-70
2021/05/22 04:59:02;;;;;;;0.85;0.82;;;;;;;6.19;89.63;95038.19;5101290;28;20446;-71
2021/05/22 05:01:28;;;;;;;0.65;0.65;;;;;;;6.16;89.79;95033.47;5108883;28;20404;-70
2021/05/22 05:03:54;;;;;;;1.55;0.60;;;;;;;6.22;89.11;95038.47;5101913;28;20062;-70
2021/05/22 05:06:20;;;;;;;0.60;0.60;;;;;;;6.17;89.95;95035.06;5108338;28;20036;-70
2021/05/22 05:08:46;;;;;;;0.63;0.63;;;;;;;6.15;89.25;95031.88;5100304;28;20040;-70
2021/05/22 05:11:11;;;;;;;1.15;0.75;;;;;;;6.12;90.04;95030.59;5097317;28;20073;-71
2021/05/22 05:13:37;;;;;;;0.75;0.57;;;;;;;6.18;89.87;95042.63;5098051;28;20063;-70
2021/05/22 05:16:03;;;;;;;1.65;0.70;;;;;;;6.24;88.33;95036.38;5106163;28;20044;-70
2021/05/22 05:18:29;;;;;;;0.70;0.70;;;;;;;6.25;89.40;95026.75;5095168;28;20050;-70
2021/05/22 05:20:56;;;;;;;0.65;0.65;;;;;;;6.21;88.76;95020.44;5097721;28;20043;-70
2021/05/22 05:23:22;;;;;;;1.00;0.90;;;;;;;6.30;89.67;95031.97;5095840;28;20157;-70
2021/05/22 05:25:49;;;;;;;2.03;0.70;;;;;;;6.43;88.35;95048.25;5094439;28;20508;-70
2021/05/22 05:28:14;;;;;;;1.23;0.80;;;;;;;6.42;88.45;95042.22;5105656;28;20043;-70
2021/05/22 05:30:40;;;;;;;0.68;0.68;;;;;;;6.43;88.51;95035.19;5111003;27;20105;-71
2021/05/22 05:33:05;;;;;;;0.60;0.50;;;;;;;6.45;88.65;95041.75;5113798;28;20040;-70
2021/05/22 05:35:31;;;;;;;0.93;0.80;;;;;;;6.50;88.39;95038.34;5102074;28;20036;-70
2021/05/22 05:37:56;;;;;;;2.25;0.75;;;;;;;6.61;87.26;95039.97;5093390;28;20119;-70
2021/05/22 05:40:22;;;;;;;1.67;0.70;;;;;;;6.67;86.69;95044.19;5099390;28;20066;-70
2021/05/22 05:42:49;;;;;;;2.15;0.82;;;;;;;6.71;89.20;95034.78;5104079;28;20470;-69
2021/05/22 05:45:15;;;;;;;0.60;0.60;;;;;;;6.80;86.01;95029.06;5113755;28;20047;-70
2021/05/22 05:47:41;;;;;;;0.85;0.77;;;;;;;6.83;86.03;95036.41;5112480;28;20070;-70
2021/05/22 05:50:08;;;;;;;2.25;1.10;;;;;;;6.86;86.40;95041.13;5113691;27;20062;-69
2021/05/22 05:52:33;;;;;;;2.53;1.35;;;;;;;6.89;85.76;95037.97;5111956;28;20043;-70
2021/05/22 05:54:59;;;;;;;1.50;1.00;;;;;;;6.97;85.98;95041.91;5113508;28;20051;-70
2021/05/22 05:57:25;;;;;;;1.10;1.00;;;;;;;7.06;85.41;95035.16;5109679;28;20059;-70
2021/05/22 05:59:50;;;;;;;2.35;0.95;;;;;;;7.08;84.49;95033.84;5113746;28;20142;-71
2021/05/22 06:02:16;;;;;;;0.70;0.70;;;;;;;7.07;86.01;95032.28;5113021;28;20067;-69
2021/05/22 06:04:41;;;;;;;1.33;0.63;;;;;;;7.09;85.65;95030.19;5113092;28;20085;-70
2021/05/22 06:07:07;;;;;;;1.85;0.90;;;;;;;7.17;86.27;95035.94;5111764;28;20059;-70
2021/05/22 06:09:33;;;;;;;2.25;0.82;;;;;;;7.25;85.71;95043.28;5111779;28;20039;-70
2021/05/22 06:11:59;;;;;;;0.80;0.55;;;;;;;7.27;85.94;95046.47;5109085;28;20047;-70
2021/05/22 06:14:31;;;;;;;2.60;0.80;;;;;;;7.31;84.97;95042.25;5113362;28;20112;-70
2021/05/22 06:16:57;;;;;;;0.80;0.80;;;;;;;7.45;84.26;95027.59;5108425;28;20131;-70
2021/05/22 06:19:22;;;;;;;1.08;0.77;;;;;;;7.52;83.96;95042.28;5108045;28;20544;-70
2021/05/22 06:21:48;;;;;;;0.85;0.85;;;;;;;7.60;84.16;95034.69;5112277;28;20035;-70
2021/05/22 06:24:14;;;;;;;0.60;0.60;;;;;;;7.60;85.39;95037.31;5113498;28;20397;-70
2021/05/22 06:26:39;;;;;;;1.55;0.82;;;;;;;7.72;84.48;95037.06;5101838;28;20085;-69
2021/05/22 06:29:05;;;;;;;0.70;0.70;;;;;;;7.77;84.54;95039.69;5092876;28;20051;-70
2021/05/22 06:31:31;;;;;;;2.08;0.75;;;;;;;7.70;83.44;95039.16;5092753;28;20051;-71
2021/05/22 06:33:56;;;;;;;0.50;0.50;;;;;;;7.65;83.54;95044.38;5111848;28;20082;-71
2021/05/22 06:36:22;;;;;;;0.55;0.50;;;;;;;7.65;85.32;95051.47;5103770;27;20477;-71
2021/05/22 06:38:47;;;;;;;0.98;0.93;;;;;;;7.53;85.89;95059.56;5111375;28;20481;-69
2021/05/22 06:41:13;;;;;;;1.33;0.82;;;;;;;7.43;84.69;95066.38;5112765;28;20039;-70
2021/05/22 06:43:39;;;;;;;4.05;0.90;;;;;;;7.40;85.98;95061.66;5112112;28;20043;-70
2021/05/22 06:48:38;;;;;;;1.80;0.82;;;;;;;7.49;84.37;95055.91;5104328;28;20039;-70
2021/05/22 06:51:05;;;;;;;1.23;0.88;;;;;;;7.60;86.22;95054.84;5112763;28;20595;-70
2021/05/22 06:53:30;;;;;;;1.55;0.85;;;;;;;7.68;84.71;95056.94;5105816;28;20040;-71
2021/05/22 06:55:57;;;;;;;1.30;0.82;;;;;;;7.94;84.41;95059.56;5104755;28;20036;-69
2021/05/22 06:58:23;;;;;;;3.03;0.95;;;;;;;8.06;83.82;95052.22;5112062;28;20051;-69
2021/05/22 07:00:48;;;;;;;1.35;1.00;;;;;;;8.18;83.86;95048.56;5112447;28;20047;-70
2021/05/22 07:03:14;;;;;;;1.15;0.90;;;;;;;8.32;79.42;95049.56;5110670;28;20040;-69
2021/05/22 07:05:39;;;;;;;3.08;1.10;;;;;;;8.37;81.39;95052.16;5108396;28;20312;-69
2021/05/22 07:08:05;;;;;;;3.00;1.13;;;;;;;8.42;80.90;95049.53;5110433;28;20050;-69
2021/05/22 07:10:31;;;;;;;2.45;1.17;;;;;;;8.56;80.91;95054.25;5112236;28;20066;-70
2021/05/22 07:12:57;;;;;;;2.75;0.90;;;;;;;8.68;81.17;95052.13;5112186;28;20081;-70
2021/05/22 07:15:22;;;;;;;4.15;1.30;;;;;;;9.03;76.98;95053.00;5109889;28;20035;-70
2021/05/22 07:17:48;;;;;;;3.92;1.10;;;;;;;9.07;77.34;95064.53;5102845;28;20047;-70
2021/05/22 07:20:15;;;;;;;5.68;1.20;;;;;;;9.10;77.76;95068.47;5111938;28;20051;-71
2021/05/22 07:22:42;;;;;;;3.38;1.02;;;;;;;9.05;77.21;95071.91;5111987;28;20036;-70
2021/05/22 07:25:09;;;;;;;3.20;1.10;;;;;;;9.11;73.87;95065.56;5102664;28;20040;-70
2021/05/22 07:27:36;;;;;;;2.45;1.10;;;;;;;9.16;75.39;95068.16;5092035;28;20048;-70
2021/05/22 07:30:09;;;;;;;2.42;1.30;;;;;;;9.14;76.57;95070.28;5111387;28;20059;-71
2021/05/22 07:32:36;;;;;;;1.97;1.13;;;;;;;9.31;74.65;95063.88;5110794;28;20130;-71
2021/05/22 07:35:04;;;;;;;3.88;1.13;;;;;;;9.26;74.68;95061.28;5097989;28;20073;-72
2021/05/22 07:37:29;;;;;;;5.00;1.50;;;;;;;9.25;74.26;95067.59;5103622;28;20067;-71
2021/05/22 07:39:57;;;;;;;4.30;1.75;;;;;;;9.29;75.71;95056.28;5104336;28;20297;-70
2021/05/22 07:42:24;;;;;;;4.53;1.20;;;;;;;9.41;73.63;95053.34;5111225;28;20044;-71
2021/05/22 07:44:51;;;;;;;3.22;1.13;;;;;;;9.51;74.41;95062.97;5091519;28;20063;-71
2021/05/22 07:47:17;;;;;;;3.63;1.23;;;;;;;9.77;74.77;95055.72;5093010;28;20052;-71
2021/05/22 07:49:43;;;;;;;3.58;1.35;;;;;;;9.50;71.57;95062.19;5110945;28;20112;-70
2021/05/22 07:52:10;;;;;;;3.20;1.10;;;;;;;9.49;71.62;95055.38;5111352;28;20053;-70
2021/05/22 07:54:41;;;;;;;3.35;1.30;;;;;;;9.53;73.99;95066.13;5110311;28;20051;-71
2021/05/22 07:57:09;;;;;;;4.85;1.17;;;;;;;10.00;70.94;95058.69;5098186;28;20044;-70
2021/05/22 07:59:34;;;;;;;4.03;1.25;;;;;;;9.72;69.08;95063.63;5090712;28;20525;-71
2021/05/22 08:02:01;;;;;;;4.88;1.17;;;;;;;10.19;68.91;95051.66;5106312;28;20044;-71
2021/05/22 08:04:26;;;;;;;3.40;1.40;;;;;;;10.22;67.75;95056.34;5105610;28;20048;-71
2021/05/22 08:06:52;;;;;;;4.28;1.50;;;;;;;10.36;69.67;95050.50;5109031;28;20046;-71
2021/05/22 08:09:18;;;;;;;4.93;1.25;;;;;;;10.55;65.61;95059.22;5098615;28;20117;-70
2021/05/22 08:11:44;;;;;;;4.70;1.45;;;;;;;10.49;66.64;95049.03;5098932;28;20075;-70
2021/05/22 08:14:09;;;;;;;3.50;1.50;;;;;;;10.70;63.81;95044.31;5108939;28;20080;-70
2021/05/22 08:16:36;;;;;;;4.15;1.40;;;;;;;10.67;66.35;95037.00;5110443;28;20040;-70
2021/05/22 08:19:02;;;;;;;6.32;1.33;;;;;;;10.54;64.04;95036.63;5108252;28;20047;-71
2021/05/22 08:21:28;;;;;;;3.80;1.20;;;;;;;10.79;62.77;95042.66;5110730;28;20048;-70
2021/05/22 08:23:54;;;;;;;5.43;1.70;;;;;;;10.72;64.76;95039.56;5109820;28;20165;-70
2021/05/22 08:26:21;;;;;;;5.05;1.40;;;;;;;10.77;63.94;95039.50;5102524;28;20409;-71
2021/05/22 08:28:47;;;;;;;4.78;1.48;;;;;;;10.84;64.47;95041.81;5109984;28;20469;-71
2021/05/22 08:31:12;;;;;;;2.90;1.30;;;;;;;11.06;63.61;95033.34;5110794;28;20065;-71
2021/05/22 08:33:38;;;;;;;4.45;1.25;;;;;;;10.84;63.20;95029.41;5110504;28;20047;-70
2021/05/22 08:36:04;;;;;;;3.97;1.33;;;;;;;10.56;63.87;95039.75;5108180;28;20051;-70
2021/05/22 08:38:30;;;;;;;5.72;1.65;;;;;;;10.73;61.82;95027.97;5109140;28;20040;-70
2021/05/22 08:40:56;;;;;;;4.75;1.30;;;;;;;10.88;62.14;95025.16;5110500;28;20047;-70
2021/05/22 08:43:22;;;;;;;3.40;1.40;;;;;;;10.97;62.03;95037.69;5109703;28;20092;-70
2021/05/22 08:45:48;;;;;;;5.97;1.50;;;;;;;11.12;61.82;95034.88;5109226;28;20039;-70
2021/05/22 08:48:15;;;;;;;3.40;1.17;;;;;;;11.08;61.24;95023.34;5103338;28;20059;-71
2021/05/22 08:50:41;;;;;;;3.33;1.35;;;;;;;10.87;61.03;95028.06;5110369;28;20147;-70
2021/05/22 08:53:06;;;;;;;4.05;1.40;;;;;;;10.90;58.98;95038.84;5110313;28;20479;-70
2021/05/22 08:55:32;;;;;;;3.00;1.38;;;;;;;10.93;56.16;95032.19;5108959;28;20517;-70
2021/05/22 08:57:57;;;;;;;4.18;1.40;;;;;;;11.16;57.33;95025.34;5108851;28;20047;-70
2021/05/22 09:00:25;;;;;;;5.85;1.67;;;;;;;11.39;57.43;95030.78;5110340;28;20093;-70
2021/05/22 09:02:51;;;;;;;4.28;1.35;;;;;;;11.43;56.13;95029.16;5110693;28;20048;-70
2021/05/22 09:05:24;;;;;;;2.95;1.40;;;;;;;11.85;57.15;95032.75;5100773;28;20039;-70
2021/05/22 09:07:52;;;;;;;7.00;1.30;;;;;;;12.39;52.80;95029.75;5108347;28;20053;-70
2021/05/22 09:10:47;;;;;;;3.78;1.27;;;;;;;12.16;58.39;95039.41;5090145;28;20056;-71
2021/05/22 09:13:22;;;;;;;2.97;1.50;;;;;;;12.48;52.79;95035.91;5090241;28;20450;-70
2021/05/22 09:15:53;;;;;;;4.60;1.40;;;;;;;12.53;54.28;95032.38;5108192;28;20093;-70
2021/05/22 09:18:19;;;;;;;3.30;1.40;;;;;;;12.63;52.25;95032.97;5103543;28;20466;-70
2021/05/22 09:20:52;;;;;;;1.95;1.20;;;;;;;12.25;53.75;95038.41;5110220;28;20059;-70
2021/05/22 09:23:23;;;;;;;1.90;1.10;;;;;;;12.36;54.00;95044.31;5110149;28;20043;-70
2021/05/22 09:26:13;;;;;;;5.22;1.42;;;;;;;12.27;55.95;95036.28;5101650;28;20493;-70
2021/05/22 09:28:52;;;;;;;4.30;1.27;;;;;;;12.64;53.05;95045.09;5109876;28;20498;-70
2021/05/22 09:31:19;;;;;;;3.15;1.30;;;;;;;12.61;52.49;95035.13;5110014;28;20620;-70
2021/05/22 09:33:45;;;;;;;2.10;1.20;;;;;;;12.52;54.41;95042.16;5109900;28;20047;-70
2021/05/22 09:36:13;;;;;;;3.63;1.20;;;;;;;12.17;53.36;95039.09;5096179;28;20072;-70
2021/05/22 09:38:49;;;;;;;2.28;1.15;;;;;;;12.58;53.47;95051.53;5104708;28;20043;-70
2021/05/22 09:41:35;;;;;;;4.20;1.40;;;;;;;12.83;53.13;95044.22;5093406;28;20044;-70
2021/05/22 09:44:11;;;;;;;4.97;1.50;;;;;;;12.87;49.91;95042.53;5113085;28;20047;-70
2021/05/22 09:46:57;;;;;;;2.33;1.30;;;;;;;12.76;52.14;95051.75;5109747;28;20115;-71
2021/05/22 09:49:28;;;;;;;3.97;1.20;;;;;;;13.08;51.94;95036.84;5107273;28;20070;-70
2021/05/22 09:52:03;;;;;;;3.78;1.60;;;;;;;13.47;49.05;95038.91;5113683;28;20505;-70
2021/05/22 09:54:44;;;;;;;4.15;1.17;;;;;;;13.66;49.52;95041.41;5113727;28;20036;-70
2021/05/22 09:57:15;;;;;;;3.15;1.40;;;;;;;13.51;51.43;95033.84;5101735;28;20044;-70
2021/05/22 09:59:40;;;;;;;3.88;1.20;;;;;;;13.33;47.78;95049.53;5113809;28;20035;-70
2021/05/22 10:02:06;;;;;;;4.00;1.20;;;;;;;13.60;50.92;95025.97;5113417;28;20489;-70
2021/05/22 10:04:32;;;;;;;2.90;1.35;;;;;;;13.65;47.55;95039.84;5099965;28;20048;-69
2021/05/22 10:06:57;;;;;;;4.30;1.20;;;;;;;13.57;47.19;95032.63;5103086;28;20493;-70
2021/05/22 10:09:25;;;;;;;3.70;1.27;;;;;;;13.36;45.75;95042.09;5105408;28;20067;-71
2021/05/22 10:12:09;;;;;;;4.32;1.60;;;;;;;13.25;49.90;95037.00;5113024;28;20105;-70
2021/05/22 10:14:38;;;;;;;1.58;1.10;;;;;;;13.71;47.86;95023.88;5113302;27;20056;-71
2021/05/22 10:17:06;;;;;;;2.63;1.30;;;;;;;13.71;49.17;95031.81;5101311;28;20142;-70
2021/05/22 10:19:33;;;;;;;4.03;1.40;;;;;;;13.57;49.51;95016.00;5107253;28;20147;-70
2021/05/22 10:22:00;;;;;;;2.58;1.23;;;;;;;14.00;47.81;95034.78;5112521;28;20508;-70
2021/05/22 10:24:26;;;;;;;2.10;1.15;;;;;;;13.42;50.01;95030.31;5111655;28;20043;-70
2021/05/22 10:26:54;;;;;;;3.40;1.40;;;;;;;13.71;52.24;95031.81;5099184;28;20044;-70
2021/05/22 10:29:23;;;;;;;3.42;1.17;;;;;;;14.32;51.18;95030.31;5112647;28;20047;-71
2021/05/22 10:31:50;;;;;;;3.95;1.30;;;;;;;14.57;48.03;95025.41;5113139;28;20141;-70
2021/05/22 10:34:20;;;;;;;3.08;1.40;;;;;;;14.59;47.70;95027.75;5111274;28;20513;-69
2021/05/22 10:36:52;;;;;;;2.92;1.35;;;;;;;15.64;45.63;95023.41;5111863;28;20044;-69
2021/05/22 10:39:40;;;;;;;2.92;1.33;;;;;;;16.84;42.64;95018.41;5102767;28;20158;-70
2021/05/22 10:42:18;;;;;;;2.92;1.58;;;;;;;17.93;42.83;95019.38;5112635;28;20039;-71
2021/05/22 10:44:44;;;;;;;4.03;1.63;;;;;;;18.41;38.21;95011.03;5112548;28;20070;-70
2021/05/22 10:47:11;;;;;;;2.53;1.48;;;;;;;18.81;41.26;95016.50;5110174;28;20494;-70
2021/05/22 10:49:55;;;;;;;2.65;1.45;;;;;;;18.00;41.32;95008.19;5110257;28;20050;-69
2021/05/22 10:52:26;;;;;;;1.73;1.40;;;;;;;18.44;36.59;95021.81;5112538;28;20063;-70
2021/05/22 10:55:09;;;;;;;4.75;1.63;;;;;;;18.49;36.03;95013.59;5112272;28;20044;-69
2021/05/22 10:58:15;;;;;;;2.97;1.50;;;;;;;18.79;38.81;95002.75;5106771;28;20048;-70
2021/05/22 11:00:40;;;;;;;2.08;1.50;;;;;;;19.18;34.00;95005.81;5093439;28;20207;-69
2021/05/22 11:03:06;;;;;;;3.92;1.55;;;;;;;19.12;39.06;95001.84;5112226;28;20609;-69
2021/05/22 11:05:36;;;;;;;3.90;1.40;;;;;;;19.56;33.89;95001.16;5108676;28;20108;-69
2021/05/22 11:08:07;;;;;;;2.20;1.50;;;;;;;20.14;32.47;95006.16;5094260;28;20036;-69
2021/05/22 11:10:42;;;;;;;1.75;1.40;;;;;;;20.01;35.94;95007.34;5107379;28;20044;-69
2021/05/22 11:13:31;;;;;;;5.03;1.52;;;;;;;17.91;38.29;95005.59;5111025;28;20407;-70
2021/05/22 11:15:59;;;;;;;2.80;1.60;;;;;;;18.26;36.59;95007.91;5107609;28;20237;-69
2021/05/22 11:18:47;;;;;;;4.40;1.70;;;;;;;18.87;37.21;95012.50;5096509;28;20115;-69
2021/05/22 11:21:21;;;;;;;3.08;1.65;;;;;;;19.46;34.18;95005.06;5111666;28;20047;-69
2021/05/22 11:24:06;;;;;;;2.83;1.48;;;;;;;20.01;35.31;95007.34;5111342;28;20044;-70
2021/05/22 11:26:56;;;;;;;2.40;1.60;;;;;;;20.01;36.32;94999.31;5107200;28;20789;-69
2021/05/22 11:29:22;;;;;;;1.60;1.50;;;;;;;20.48;32.69;95011.94;5091388;28;20469;-69
2021/05/22 11:31:48;;;;;;;3.17;1.52;;;;;;;18.71;33.25;95014.28;5100302;28;20052;-69
2021/05/22 11:34:20;;;;;;;3.63;1.60;;;;;;;20.53;31.44;95017.03;5109187;28;20518;-69
2021/05/22 11:37:10;;;;;;;4.00;1.70;;;;;;;21.57;32.62;95002.53;5110096;28;20101;-70
2021/05/22 11:39:40;;;;;;;4.07;1.60;;;;;;;21.67;29.62;94995.84;5104263;28;20496;-69
2021/05/22 11:42:33;;;;;;;3.05;1.63;;;;;;;22.37;31.76;95004.00;5111480;28;20055;-69
2021/05/22 11:45:05;;;;;;;2.90;1.40;;;;;;;20.31;32.35;95009.63;5111203;28;20066;-70
2021/05/22 11:47:35;;;;;;;4.13;1.40;;;;;;;20.14;30.85;95014.19;5106206;28;20501;-69